sensor_id;sensor_type;location;lat;lon;timestamp;P1;durP1;ratioP1;P2;durP2;ratioP2
6485;SDS011;3276;48.490;9.222;2024-03-23T00:54:18;6.00;;;2.90;;
6485;SDS011;3276;48.490;9.222;2024-03-23T00:56:43;7.33;;;2.97;;
6485;SDS011;3276;48.490;9.222;2024-03-23T00:59:09;4.90;;;2.40;;
6485;SDS011;3276;48.490;9.222;2024-03-23T01:01:34;6.10;;;2.73;;
6485;SDS011;3276;48.490;9.222;2024-03-23T01:04:00;5.30;;;2.53;;
6485;SDS011;3276;48.490;9.222;2024-03-23T01:06:25;4.57;;;3.10;;
6485;SDS011;3276;48.490;9.222;2024-03-23T01:08:51;5.03;;;3.20;;
6485;SDS011;3276;48.490;9.222;2024-03-23T01:11:17;3.90;;;2.60;;
6485;SDS011;3276;48.490;9.222;2024-03-23T01:13:43;5.43;;;2.40;;
6485;SDS011;3276;48.490;9.222;2024-03-23T01:16:08;3.63;;;2.93;;
6485;SDS011;3276;48.490;9.222;2024-03-23T01:18:34;3.93;;;2.30;;
6485;SDS011;3276;48.490;9.222;2024-03-23T01:20:59;4.07;;;2.43;;
6485;SDS011;3276;48.490;9.222;2024-03-23T01:23:25;4.77;;;2.90;;
6485;SDS011;3276;48.490;9.222;2024-03-23T01:25:53;3.40;;;2.33;;
6485;SDS011;3276;48.490;9.222;2024-03-23T01:28:20;4.00;;;1.90;;
6485;SDS011;3276;48.490;9.222;2024-03-23T01:30:46;10.60;;;2.60;;
6485;SDS011;3276;48.490;9.222;2024-03-23T01:33:12;3.17;;;2.30;;
6485;SDS011;3276;48.490;9.222;2024-03-23T01:35:37;2.97;;;2.30;;
6485;SDS011;3276;48.490;9.222;2024-03-23T01:38:03;3.50;;;1.77;;
6485;SDS011;3276;48.490;9.222;2024-03-23T01:40:29;4.93;;;3.00;;
6485;SDS011;3276;48.490;9.222;2024-03-23T01:42:57;3.83;;;2.43;;
6485;SDS011;3276;48.490;9.222;2024-03-23T01:45:28;2.70;;;1.83;;
6485;SDS011;3276;48.490;9.222;2024-03-23T01:47:55;3.90;;;2.67;;
6485;SDS011;3276;48.490;9.222;2024-03-23T01:50:20;4.67;;;2.20;;
6485;SDS011;3276;48.490;9.222;2024-03-23T01:52:46;4.17;;;2.20;;
6485;SDS011;3276;48.490;9.222;2024-03-23T01:55:13;4.13;;;2.10;;
6485;SDS011;3276;48.490;9.222;2024-03-23T01:57:38;4.23;;;2.20;;
6485;SDS011;3276;48.490;9.222;2024-03-23T02:00:04;4.53;;;2.50;;
6485;SDS011;3276;48.490;9.222;2024-03-23T02:02:31;3.13;;;2.20;;
6485;SDS011;3276;48.490;9.222;2024-03-23T02:04:56;5.50;;;2.67;;
6485;SDS011;3276;48.490;9.222;2024-03-23T02:07:22;3.30;;;1.83;;
6485;SDS011;3276;48.490;9.222;2024-03-23T02:09:48;3.33;;;1.90;;
6485;SDS011;3276;48.490;9.222;2024-03-23T02:12:15;3.83;;;2.43;;
6485;SDS011;3276;48.490;9.222;2024-03-23T02:14:40;2.53;;;1.80;;
6485;SDS011;3276;48.490;9.222;2024-03-23T02:17:06;3.37;;;2.10;;
6485;SDS011;3276;48.490;9.222;2024-03-23T02:19:31;3.40;;;2.50;;
6485;SDS011;3276;48.490;9.222;2024-03-23T02:21:57;2.50;;;1.80;;
6485;SDS011;3276;48.490;9.222;2024-03-23T02:24:22;5.47;;;2.90;;
6485;SDS011;3276;48.490;9.222;2024-03-23T02:26:48;2.93;;;1.53;;
6485;SDS011;3276;48.490;9.222;2024-03-23T02:29:13;4.27;;;2.20;;
6485;SDS011;3276;48.490;9.222;2024-03-23T02:31:39;4.83;;;2.30;;
6485;SDS011;3276;48.490;9.222;2024-03-23T02:34:05;3.87;;;2.20;;
6485;SDS011;3276;48.490;9.222;2024-03-23T02:36:31;3.23;;;2.53;;
6485;SDS011;3276;48.490;9.222;2024-03-23T02:38:56;3.07;;;2.20;;
6485;SDS011;3276;48.490;9.222;2024-03-23T02:41:22;3.30;;;3.00;;
6485;SDS011;3276;48.490;9.222;2024-03-23T02:43:51;2.03;;;1.63;;
6485;SDS011;3276;48.490;9.222;2024-03-23T02:46:17;3.70;;;2.53;;
6485;SDS011;3276;48.490;9.222;2024-03-23T02:48:43;3.60;;;1.63;;
6485;SDS011;3276;48.490;9.222;2024-03-23T02:51:08;2.90;;;2.20;;
6485;SDS011;3276;48.490;9.222;2024-03-23T02:53:34;2.83;;;1.73;;
6485;SDS011;3276;48.490;9.222;2024-03-23T02:55:59;2.93;;;1.80;;
6485;SDS011;3276;48.490;9.222;2024-03-23T02:58:25;4.10;;;2.37;;
6485;SDS011;3276;48.490;9.222;2024-03-23T03:00:51;6.13;;;2.20;;
6485;SDS011;3276;48.490;9.222;2024-03-23T03:03:16;3.57;;;1.67;;
6485;SDS011;3276;48.490;9.222;2024-03-23T03:05:42;4.53;;;2.60;;
6485;SDS011;3276;48.490;9.222;2024-03-23T03:08:08;3.70;;;2.33;;
6485;SDS011;3276;48.490;9.222;2024-03-23T03:10:33;3.27;;;2.00;;
6485;SDS011;3276;48.490;9.222;2024-03-23T03:13:01;3.50;;;2.17;;
6485;SDS011;3276;48.490;9.222;2024-03-23T03:15:27;5.70;;;1.83;;
6485;SDS011;3276;48.490;9.222;2024-03-23T03:17:53;4.10;;;1.80;;
6485;SDS011;3276;48.490;9.222;2024-03-23T03:20:18;2.87;;;2.00;;
6485;SDS011;3276;48.490;9.222;2024-03-23T03:22:44;2.50;;;1.60;;
6485;SDS011;3276;48.490;9.222;2024-03-23T03:25:09;4.90;;;3.23;;
6485;SDS011;3276;48.490;9.222;2024-03-23T03:27:35;3.97;;;3.20;;
6485;SDS011;3276;48.490;9.222;2024-03-23T03:30:00;4.07;;;2.40;;
6485;SDS011;3276;48.490;9.222;2024-03-23T03:32:28;4.03;;;2.10;;
6485;SDS011;3276;48.490;9.222;2024-03-23T03:34:54;3.40;;;2.13;;
6485;SDS011;3276;48.490;9.222;2024-03-23T03:37:19;2.90;;;2.17;;
6485;SDS011;3276;48.490;9.222;2024-03-23T03:39:45;3.33;;;2.10;;
6485;SDS011;3276;48.490;9.222;2024-03-23T03:42:10;3.30;;;2.30;;
6485;SDS011;3276;48.490;9.222;2024-03-23T03:44:36;3.30;;;2.07;;
6485;SDS011;3276;48.490;9.222;2024-03-23T03:47:02;3.27;;;2.37;;
6485;SDS011;3276;48.490;9.222;2024-03-23T03:49:27;2.47;;;1.53;;
6485;SDS011;3276;48.490;9.222;2024-03-23T03:51:53;6.07;;;2.03;;
6485;SDS011;3276;48.490;9.222;2024-03-23T03:54:18;2.80;;;2.40;;
6485;SDS011;3276;48.490;9.222;2024-03-23T03:56:44;4.83;;;2.20;;
6485;SDS011;3276;48.490;9.222;2024-03-23T03:59:09;4.37;;;2.50;;
6485;SDS011;3276;48.490;9.222;2024-03-23T04:01:35;3.80;;;2.50;;
6485;SDS011;3276;48.490;9.222;2024-03-23T04:04:01;2.50;;;2.10;;
6485;SDS011;3276;48.490;9.222;2024-03-23T04:06:26;3.40;;;2.90;;
6485;SDS011;3276;48.490;9.222;2024-03-23T04:08:52;3.07;;;2.60;;
6485;SDS011;3276;48.490;9.222;2024-03-23T04:11:17;3.30;;;1.93;;
6485;SDS011;3276;48.490;9.222;2024-03-23T04:13:43;3.60;;;2.27;;
6485;SDS011;3276;48.490;9.222;2024-03-23T04:16:08;2.70;;;1.63;;
6485;SDS011;3276;48.490;9.222;2024-03-23T04:18:34;3.70;;;2.20;;
6485;SDS011;3276;48.490;9.222;2024-03-23T04:21:00;10.83;;;3.10;;
6485;SDS011;3276;48.490;9.222;2024-03-23T04:23:25;5.53;;;2.80;;
6485;SDS011;3276;48.490;9.222;2024-03-23T04:25:51;5.23;;;2.67;;
6485;SDS011;3276;48.490;9.222;2024-03-23T04:28:18;3.77;;;1.53;;
6485;SDS011;3276;48.490;9.222;2024-03-23T04:30:44;3.20;;;2.13;;
6485;SDS011;3276;48.490;9.222;2024-03-23T04:33:10;3.57;;;2.20;;
6485;SDS011;3276;48.490;9.222;2024-03-23T04:35:35;4.93;;;2.70;;
6485;SDS011;3276;48.490;9.222;2024-03-23T04:38:01;2.87;;;2.10;;
6485;SDS011;3276;48.490;9.222;2024-03-23T04:40:27;3.40;;;2.43;;
6485;SDS011;3276;48.490;9.222;2024-03-23T04:42:52;3.23;;;2.20;;
6485;SDS011;3276;48.490;9.222;2024-03-23T04:45:18;3.70;;;1.80;;
6485;SDS011;3276;48.490;9.222;2024-03-23T04:47:43;4.67;;;1.93;;
6485;SDS011;3276;48.490;9.222;2024-03-23T04:50:09;2.73;;;1.97;;
6485;SDS011;3276;48.490;9.222;2024-03-23T04:52:37;3.97;;;2.57;;
6485;SDS011;3276;48.490;9.222;2024-03-23T04:55:03;4.30;;;2.53;;
6485;SDS011;3276;48.490;9.222;2024-03-23T04:57:29;4.63;;;1.90;;
6485;SDS011;3276;48.490;9.222;2024-03-23T04:59:55;3.53;;;2.30;;
6485;SDS011;3276;48.490;9.222;2024-03-23T05:02:20;3.37;;;1.77;;
6485;SDS011;3276;48.490;9.222;2024-03-23T05:04:46;5.03;;;2.60;;
6485;SDS011;3276;48.490;9.222;2024-03-23T05:07:12;5.13;;;2.10;;
6485;SDS011;3276;48.490;9.222;2024-03-23T05:09:37;3.90;;;2.37;;
6485;SDS011;3276;48.490;9.222;2024-03-23T05:12:03;3.07;;;2.60;;
6485;SDS011;3276;48.490;9.222;2024-03-23T05:14:29;2.50;;;1.97;;
6485;SDS011;3276;48.490;9.222;2024-03-23T05:16:54;4.00;;;2.60;;
6485;SDS011;3276;48.490;9.222;2024-03-23T05:19:20;5.10;;;2.37;;
6485;SDS011;3276;48.490;9.222;2024-03-23T05:21:46;2.90;;;2.20;;
6485;SDS011;3276;48.490;9.222;2024-03-23T05:24:11;3.60;;;2.50;;
6485;SDS011;3276;48.490;9.222;2024-03-23T05:26:37;4.73;;;2.20;;
6485;SDS011;3276;48.490;9.222;2024-03-23T05:29:03;9.30;;;2.80;;
6485;SDS011;3276;48.490;9.222;2024-03-23T05:31:29;4.40;;;2.70;;
6485;SDS011;3276;48.490;9.222;2024-03-23T05:33:56;7.10;;;2.63;;
6485;SDS011;3276;48.490;9.222;2024-03-23T05:36:21;4.93;;;2.50;;
6485;SDS011;3276;48.490;9.222;2024-03-23T05:38:48;3.50;;;2.40;;
6485;SDS011;3276;48.490;9.222;2024-03-23T05:41:14;6.90;;;3.00;;
6485;SDS011;3276;48.490;9.222;2024-03-23T05:43:39;3.63;;;2.53;;
6485;SDS011;3276;48.490;9.222;2024-03-23T05:46:05;5.10;;;3.30;;
6485;SDS011;3276;48.490;9.222;2024-03-23T05:48:31;5.20;;;3.60;;
6485;SDS011;3276;48.490;9.222;2024-03-23T05:50:57;9.73;;;5.03;;
6485;SDS011;3276;48.490;9.222;2024-03-23T05:53:23;6.63;;;4.33;;
6485;SDS011;3276;48.490;9.222;2024-03-23T05:55:49;5.93;;;5.33;;
6485;SDS011;3276;48.490;9.222;2024-03-23T05:58:18;5.40;;;4.23;;
6485;SDS011;3276;48.490;9.222;2024-03-23T06:00:43;6.30;;;4.80;;
6485;SDS011;3276;48.490;9.222;2024-03-23T06:03:09;6.43;;;4.47;;
6485;SDS011;3276;48.490;9.222;2024-03-23T06:05:38;10.17;;;6.30;;
6485;SDS011;3276;48.490;9.222;2024-03-23T06:08:04;5.90;;;4.10;;
6485;SDS011;3276;48.490;9.222;2024-03-23T06:10:30;4.77;;;4.20;;
6485;SDS011;3276;48.490;9.222;2024-03-23T06:12:56;3.97;;;3.10;;
6485;SDS011;3276;48.490;9.222;2024-03-23T06:15:23;4.30;;;3.40;;
6485;SDS011;3276;48.490;9.222;2024-03-23T06:17:49;8.60;;;3.70;;
6485;SDS011;3276;48.490;9.222;2024-03-23T06:20:14;5.70;;;4.23;;
6485;SDS011;3276;48.490;9.222;2024-03-23T06:22:40;5.97;;;3.37;;
6485;SDS011;3276;48.490;9.222;2024-03-23T06:25:06;7.37;;;4.20;;
6485;SDS011;3276;48.490;9.222;2024-03-23T06:27:32;7.90;;;4.87;;
6485;SDS011;3276;48.490;9.222;2024-03-23T06:29:58;4.73;;;4.07;;
6485;SDS011;3276;48.490;9.222;2024-03-23T06:32:24;6.10;;;3.90;;
6485;SDS011;3276;48.490;9.222;2024-03-23T06:34:50;5.27;;;3.20;;
6485;SDS011;3276;48.490;9.222;2024-03-23T06:37:15;3.90;;;3.10;;
6485;SDS011;3276;48.490;9.222;2024-03-23T06:39:41;3.47;;;2.37;;
6485;SDS011;3276;48.490;9.222;2024-03-23T06:42:07;5.47;;;2.47;;
6485;SDS011;3276;48.490;9.222;2024-03-23T06:44:33;3.37;;;2.30;;
6485;SDS011;3276;48.490;9.222;2024-03-23T06:46:59;2.77;;;1.40;;
6485;SDS011;3276;48.490;9.222;2024-03-23T06:49:24;2.83;;;1.50;;
6485;SDS011;3276;48.490;9.222;2024-03-23T06:51:50;2.77;;;1.20;;
6485;SDS011;3276;48.490;9.222;2024-03-23T06:54:19;2.03;;;1.10;;
6485;SDS011;3276;48.490;9.222;2024-03-23T06:56:45;2.30;;;1.20;;
6485;SDS011;3276;48.490;9.222;2024-03-23T06:59:11;3.33;;;1.47;;
6485;SDS011;3276;48.490;9.222;2024-03-23T07:01:36;3.43;;;1.70;;
6485;SDS011;3276;48.490;9.222;2024-03-23T07:04:02;2.33;;;1.33;;
6485;SDS011;3276;48.490;9.222;2024-03-23T07:06:29;2.20;;;1.00;;
6485;SDS011;3276;48.490;9.222;2024-03-23T07:08:54;2.10;;;1.00;;
6485;SDS011;3276;48.490;9.222;2024-03-23T07:11:20;2.40;;;1.10;;
6485;SDS011;3276;48.490;9.222;2024-03-23T07:13:49;1.73;;;0.80;;
6485;SDS011;3276;48.490;9.222;2024-03-23T07:16:15;1.90;;;1.00;;
6485;SDS011;3276;48.490;9.222;2024-03-23T07:18:41;2.43;;;0.93;;
6485;SDS011;3276;48.490;9.222;2024-03-23T07:21:06;1.77;;;0.80;;
6485;SDS011;3276;48.490;9.222;2024-03-23T07:23:32;1.80;;;0.77;;
6485;SDS011;3276;48.490;9.222;2024-03-23T07:26:05;1.80;;;0.70;;
6485;SDS011;3276;48.490;9.222;2024-03-23T07:28:33;1.97;;;0.67;;
6485;SDS011;3276;48.490;9.222;2024-03-23T07:33:27;2.07;;;0.90;;
6485;SDS011;3276;48.490;9.222;2024-03-23T07:35:53;1.90;;;0.70;;
6485;SDS011;3276;48.490;9.222;2024-03-23T07:38:18;1.67;;;0.73;;
6485;SDS011;3276;48.490;9.222;2024-03-23T07:40:44;5.00;;;1.20;;
6485;SDS011;3276;48.490;9.222;2024-03-23T07:43:09;1.80;;;0.80;;
6485;SDS011;3276;48.490;9.222;2024-03-23T07:45:35;1.93;;;0.73;;
6485;SDS011;3276;48.490;9.222;2024-03-23T07:48:02;1.73;;;0.70;;
6485;SDS011;3276;48.490;9.222;2024-03-23T07:50:28;2.80;;;1.03;;
6485;SDS011;3276;48.490;9.222;2024-03-23T07:52:54;1.90;;;0.80;;
6485;SDS011;3276;48.490;9.222;2024-03-23T07:55:19;1.80;;;0.70;;
6485;SDS011;3276;48.490;9.222;2024-03-23T07:57:46;2.00;;;1.13;;
6485;SDS011;3276;48.490;9.222;2024-03-23T08:00:11;2.83;;;0.63;;
6485;SDS011;3276;48.490;9.222;2024-03-23T08:02:38;1.80;;;0.77;;
6485;SDS011;3276;48.490;9.222;2024-03-23T08:05:04;1.70;;;0.63;;
6485;SDS011;3276;48.490;9.222;2024-03-23T08:07:29;1.80;;;0.70;;
6485;SDS011;3276;48.490;9.222;2024-03-23T08:09:55;3.60;;;0.83;;
6485;SDS011;3276;48.490;9.222;2024-03-23T08:12:20;1.60;;;0.57;;
6485;SDS011;3276;48.490;9.222;2024-03-23T08:14:46;1.93;;;0.90;;
6485;SDS011;3276;48.490;9.222;2024-03-23T08:17:11;1.80;;;0.70;;
6485;SDS011;3276;48.490;9.222;2024-03-23T08:19:37;1.70;;;0.60;;
6485;SDS011;3276;48.490;9.222;2024-03-23T08:22:02;1.90;;;0.60;;
6485;SDS011;3276;48.490;9.222;2024-03-23T08:24:28;1.50;;;0.50;;
6485;SDS011;3276;48.490;9.222;2024-03-23T08:26:55;1.60;;;0.50;;
6485;SDS011;3276;48.490;9.222;2024-03-23T08:29:20;2.70;;;0.70;;
6485;SDS011;3276;48.490;9.222;2024-03-23T08:31:46;1.70;;;0.70;;
6485;SDS011;3276;48.490;9.222;2024-03-23T08:34:12;1.67;;;0.83;;
6485;SDS011;3276;48.490;9.222;2024-03-23T08:36:37;2.00;;;0.97;;
6485;SDS011;3276;48.490;9.222;2024-03-23T08:39:03;2.03;;;0.90;;
6485;SDS011;3276;48.490;9.222;2024-03-23T08:41:28;2.30;;;1.10;;
6485;SDS011;3276;48.490;9.222;2024-03-23T08:43:54;1.63;;;0.70;;
6485;SDS011;3276;48.490;9.222;2024-03-23T08:46:19;2.23;;;0.90;;
6485;SDS011;3276;48.490;9.222;2024-03-23T08:48:46;3.13;;;1.23;;
6485;SDS011;3276;48.490;9.222;2024-03-23T08:51:14;4.37;;;1.50;;
6485;SDS011;3276;48.490;9.222;2024-03-23T08:53:41;2.27;;;1.03;;
6485;SDS011;3276;48.490;9.222;2024-03-23T08:56:08;7.33;;;2.00;;
6485;SDS011;3276;48.490;9.222;2024-03-23T08:58:34;3.60;;;1.60;;
6485;SDS011;3276;48.490;9.222;2024-03-23T09:01:05;2.90;;;1.93;;
6485;SDS011;3276;48.490;9.222;2024-03-23T09:03:33;4.00;;;1.30;;
6485;SDS011;3276;48.490;9.222;2024-03-23T09:06:00;3.60;;;1.80;;
6485;SDS011;3276;48.490;9.222;2024-03-23T09:08:26;5.67;;;1.87;;
6485;SDS011;3276;48.490;9.222;2024-03-23T09:10:51;2.87;;;1.63;;
6485;SDS011;3276;48.490;9.222;2024-03-23T09:13:18;3.60;;;1.73;;
6485;SDS011;3276;48.490;9.222;2024-03-23T09:15:47;4.70;;;2.77;;
6485;SDS011;3276;48.490;9.222;2024-03-23T09:18:14;3.00;;;1.63;;
6485;SDS011;3276;48.490;9.222;2024-03-23T09:20:40;9.67;;;2.50;;
6485;SDS011;3276;48.490;9.222;2024-03-23T09:23:05;7.40;;;2.20;;
6485;SDS011;3276;48.490;9.222;2024-03-23T09:25:31;8.50;;;2.43;;
6485;SDS011;3276;48.490;9.222;2024-03-23T09:27:56;4.27;;;3.00;;
6485;SDS011;3276;48.490;9.222;2024-03-23T09:30:23;5.53;;;3.57;;
6485;SDS011;3276;48.490;9.222;2024-03-23T09:32:48;3.77;;;2.70;;
6485;SDS011;3276;48.490;9.222;2024-03-23T09:35:14;5.20;;;2.60;;
6485;SDS011;3276;48.490;9.222;2024-03-23T09:37:39;8.63;;;3.27;;
6485;SDS011;3276;48.490;9.222;2024-03-23T09:40:05;3.97;;;2.50;;
6485;SDS011;3276;48.490;9.222;2024-03-23T09:42:34;4.10;;;2.80;;
6485;SDS011;3276;48.490;9.222;2024-03-23T09:45:00;4.83;;;2.90;;
6485;SDS011;3276;48.490;9.222;2024-03-23T09:47:26;3.90;;;2.37;;
6485;SDS011;3276;48.490;9.222;2024-03-23T09:49:52;4.00;;;2.10;;
6485;SDS011;3276;48.490;9.222;2024-03-23T09:52:18;6.00;;;3.07;;
6485;SDS011;3276;48.490;9.222;2024-03-23T09:54:44;4.83;;;2.60;;
6485;SDS011;3276;48.490;9.222;2024-03-23T09:57:10;5.83;;;2.27;;
6485;SDS011;3276;48.490;9.222;2024-03-23T09:59:35;4.30;;;2.80;;
6485;SDS011;3276;48.490;9.222;2024-03-23T10:02:01;4.87;;;2.80;;
6485;SDS011;3276;48.490;9.222;2024-03-23T10:04:39;6.20;;;3.03;;
6485;SDS011;3276;48.490;9.222;2024-03-23T10:07:10;7.17;;;3.63;;
6485;SDS011;3276;48.490;9.222;2024-03-23T10:09:40;13.67;;;3.83;;
6485;SDS011;3276;48.490;9.222;2024-03-23T10:12:12;5.97;;;2.60;;
6485;SDS011;3276;48.490;9.222;2024-03-23T10:14:42;8.40;;;4.07;;
6485;SDS011;3276;48.490;9.222;2024-03-23T10:17:11;6.83;;;3.50;;
6485;SDS011;3276;48.490;9.222;2024-03-23T10:19:47;4.30;;;3.00;;
6485;SDS011;3276;48.490;9.222;2024-03-23T10:22:16;4.67;;;3.10;;
6485;SDS011;3276;48.490;9.222;2024-03-23T10:24:43;6.10;;;4.03;;
6485;SDS011;3276;48.490;9.222;2024-03-23T10:27:09;4.60;;;3.20;;
6485;SDS011;3276;48.490;9.222;2024-03-23T10:29:34;5.77;;;3.17;;
6485;SDS011;3276;48.490;9.222;2024-03-23T10:32:12;4.13;;;3.03;;
6485;SDS011;3276;48.490;9.222;2024-03-23T10:34:38;4.50;;;2.60;;
6485;SDS011;3276;48.490;9.222;2024-03-23T10:37:04;5.80;;;3.67;;
6485;SDS011;3276;48.490;9.222;2024-03-23T10:39:32;4.77;;;2.80;;
6485;SDS011;3276;48.490;9.222;2024-03-23T10:42:02;4.50;;;3.13;;
6485;SDS011;3276;48.490;9.222;2024-03-23T10:44:36;6.87;;;4.30;;
6485;SDS011;3276;48.490;9.222;2024-03-23T10:47:02;9.43;;;4.37;;
6485;SDS011;3276;48.490;9.222;2024-03-23T10:49:29;5.27;;;3.20;;
6485;SDS011;3276;48.490;9.222;2024-03-23T10:52:03;4.67;;;3.37;;
6485;SDS011;3276;48.490;9.222;2024-03-23T10:54:30;6.00;;;4.27;;
6485;SDS011;3276;48.490;9.222;2024-03-23T10:59:27;7.80;;;3.73;;
6485;SDS011;3276;48.490;9.222;2024-03-23T11:01:56;6.13;;;3.93;;
6485;SDS011;3276;48.490;9.222;2024-03-23T11:04:32;6.87;;;3.90;;
6485;SDS011;3276;48.490;9.222;2024-03-23T11:06:59;5.90;;;4.27;;
6485;SDS011;3276;48.490;9.222;2024-03-23T11:12:13;7.73;;;1.87;;
6485;SDS011;3276;48.490;9.222;2024-03-23T11:14:52;6.67;;;1.77;;
6485;SDS011;3276;48.490;9.222;2024-03-23T11:17:18;5.00;;;2.37;;
6485;SDS011;3276;48.490;9.222;2024-03-23T11:19:44;4.20;;;1.80;;
6485;SDS011;3276;48.490;9.222;2024-03-23T11:22:17;8.33;;;2.27;;
6485;SDS011;3276;48.490;9.222;2024-03-23T11:27:49;4.23;;;1.40;;
6485;SDS011;3276;48.490;9.222;2024-03-23T11:30:17;3.07;;;2.07;;
6485;SDS011;3276;48.490;9.222;2024-03-23T11:32:47;4.17;;;2.63;;
6485;SDS011;3276;48.490;9.222;2024-03-23T11:40:46;3.00;;;1.33;;
6485;SDS011;3276;48.490;9.222;2024-03-23T11:43:13;2.50;;;1.37;;
6485;SDS011;3276;48.490;9.222;2024-03-23T11:45:44;3.57;;;1.63;;
6485;SDS011;3276;48.490;9.222;2024-03-23T11:48:12;6.90;;;2.20;;
6485;SDS011;3276;48.490;9.222;2024-03-23T11:50:46;3.50;;;2.27;;
6485;SDS011;3276;48.490;9.222;2024-03-23T11:53:19;5.77;;;2.87;;
6485;SDS011;3276;48.490;9.222;2024-03-23T11:58:26;9.43;;;5.43;;
6485;SDS011;3276;48.490;9.222;2024-03-23T12:00:56;4.87;;;2.50;;
6485;SDS011;3276;48.490;9.222;2024-03-23T12:03:22;4.93;;;2.20;;
6485;SDS011;3276;48.490;9.222;2024-03-23T12:05:51;13.30;;;6.53;;
6485;SDS011;3276;48.490;9.222;2024-03-23T12:10:54;5.03;;;1.90;;
6485;SDS011;3276;48.490;9.222;2024-03-23T12:13:42;6.70;;;2.33;;
6485;SDS011;3276;48.490;9.222;2024-03-23T12:16:13;8.20;;;2.70;;
6485;SDS011;3276;48.490;9.222;2024-03-23T12:18:40;9.57;;;2.77;;
6485;SDS011;3276;48.490;9.222;2024-03-23T12:21:07;5.67;;;1.50;;
6485;SDS011;3276;48.490;9.222;2024-03-23T12:23:33;7.10;;;2.47;;
6485;SDS011;3276;48.490;9.222;2024-03-23T12:25:59;5.53;;;2.17;;
6485;SDS011;3276;48.490;9.222;2024-03-23T12:28:25;6.40;;;1.90;;
6485;SDS011;3276;48.490;9.222;2024-03-23T12:30:51;3.00;;;1.87;;
6485;SDS011;3276;48.490;9.222;2024-03-23T12:33:17;2.10;;;1.57;;
6485;SDS011;3276;48.490;9.222;2024-03-23T12:35:43;3.77;;;1.80;;
6485;SDS011;3276;48.490;9.222;2024-03-23T12:38:09;5.50;;;1.87;;
6485;SDS011;3276;48.490;9.222;2024-03-23T12:40:34;2.53;;;1.40;;
6485;SDS011;3276;48.490;9.222;2024-03-23T12:43:00;3.20;;;1.50;;
6485;SDS011;3276;48.490;9.222;2024-03-23T12:45:25;4.27;;;2.50;;
6485;SDS011;3276;48.490;9.222;2024-03-23T12:47:52;3.53;;;1.87;;
6485;SDS011;3276;48.490;9.222;2024-03-23T12:50:18;6.33;;;2.57;;
6485;SDS011;3276;48.490;9.222;2024-03-23T12:52:44;3.07;;;1.57;;
6485;SDS011;3276;48.490;9.222;2024-03-23T12:55:10;2.33;;;1.20;;
6485;SDS011;3276;48.490;9.222;2024-03-23T12:57:35;6.23;;;1.80;;
6485;SDS011;3276;48.490;9.222;2024-03-23T13:00:01;3.30;;;1.93;;
6485;SDS011;3276;48.490;9.222;2024-03-23T13:02:28;5.93;;;1.60;;
6485;SDS011;3276;48.490;9.222;2024-03-23T13:04:54;2.43;;;1.50;;
6485;SDS011;3276;48.490;9.222;2024-03-23T13:07:20;3.70;;;2.07;;
6485;SDS011;3276;48.490;9.222;2024-03-23T13:09:47;3.20;;;2.80;;
6485;SDS011;3276;48.490;9.222;2024-03-23T13:12:14;6.30;;;2.00;;
6485;SDS011;3276;48.490;9.222;2024-03-23T13:14:40;4.80;;;2.03;;
6485;SDS011;3276;48.490;9.222;2024-03-23T13:17:06;3.73;;;1.60;;
6485;SDS011;3276;48.490;9.222;2024-03-23T13:19:32;5.37;;;1.70;;
6485;SDS011;3276;48.490;9.222;2024-03-23T13:21:59;3.80;;;1.47;;
6485;SDS011;3276;48.490;9.222;2024-03-23T13:24:25;2.33;;;1.40;;
6485;SDS011;3276;48.490;9.222;2024-03-23T13:26:52;4.40;;;2.60;;
6485;SDS011;3276;48.490;9.222;2024-03-23T13:29:21;3.90;;;1.80;;
6485;SDS011;3276;48.490;9.222;2024-03-23T13:31:47;5.00;;;2.07;;
6485;SDS011;3276;48.490;9.222;2024-03-23T13:34:14;9.40;;;2.00;;
6485;SDS011;3276;48.490;9.222;2024-03-23T13:36:43;3.47;;;1.70;;
6485;SDS011;3276;48.490;9.222;2024-03-23T13:39:09;4.53;;;2.20;;
6485;SDS011;3276;48.490;9.222;2024-03-23T13:41:42;3.10;;;1.60;;
6485;SDS011;3276;48.490;9.222;2024-03-23T13:44:10;3.07;;;1.90;;
6485;SDS011;3276;48.490;9.222;2024-03-23T13:46:37;2.47;;;1.50;;
6485;SDS011;3276;48.490;9.222;2024-03-23T13:49:03;3.53;;;1.60;;
6485;SDS011;3276;48.490;9.222;2024-03-23T13:51:30;5.70;;;1.93;;
6485;SDS011;3276;48.490;9.222;2024-03-23T13:53:55;4.83;;;3.10;;
6485;SDS011;3276;48.490;9.222;2024-03-23T13:56:22;4.40;;;2.57;;
6485;SDS011;3276;48.490;9.222;2024-03-23T13:58:50;7.00;;;2.20;;
6485;SDS011;3276;48.490;9.222;2024-03-23T14:01:16;8.37;;;2.40;;
6485;SDS011;3276;48.490;9.222;2024-03-23T14:03:43;4.93;;;2.37;;
6485;SDS011;3276;48.490;9.222;2024-03-23T14:06:09;4.00;;;1.80;;
6485;SDS011;3276;48.490;9.222;2024-03-23T14:08:35;4.27;;;2.50;;
6485;SDS011;3276;48.490;9.222;2024-03-23T14:11:04;2.00;;;1.33;;
6485;SDS011;3276;48.490;9.222;2024-03-23T14:13:33;2.63;;;1.47;;
6485;SDS011;3276;48.490;9.222;2024-03-23T14:16:00;3.93;;;1.73;;
6485;SDS011;3276;48.490;9.222;2024-03-23T14:18:26;2.73;;;1.20;;
6485;SDS011;3276;48.490;9.222;2024-03-23T14:20:52;3.30;;;1.77;;
6485;SDS011;3276;48.490;9.222;2024-03-23T14:23:23;3.37;;;1.50;;
6485;SDS011;3276;48.490;9.222;2024-03-23T14:25:49;4.37;;;1.60;;
6485;SDS011;3276;48.490;9.222;2024-03-23T14:28:17;4.70;;;2.47;;
6485;SDS011;3276;48.490;9.222;2024-03-23T14:30:42;2.83;;;1.97;;
6485;SDS011;3276;48.490;9.222;2024-03-23T14:33:08;3.07;;;2.23;;
6485;SDS011;3276;48.490;9.222;2024-03-23T14:35:34;3.07;;;1.87;;
6485;SDS011;3276;48.490;9.222;2024-03-23T14:38:01;3.67;;;1.70;;
6485;SDS011;3276;48.490;9.222;2024-03-23T14:40:27;2.30;;;1.53;;
6485;SDS011;3276;48.490;9.222;2024-03-23T14:42:56;4.40;;;3.33;;
6485;SDS011;3276;48.490;9.222;2024-03-23T14:45:21;4.00;;;1.90;;
6485;SDS011;3276;48.490;9.222;2024-03-23T14:47:48;4.00;;;1.47;;
6485;SDS011;3276;48.490;9.222;2024-03-23T14:50:14;5.10;;;3.80;;
6485;SDS011;3276;48.490;9.222;2024-03-23T14:52:44;3.80;;;1.73;;
6485;SDS011;3276;48.490;9.222;2024-03-23T14:55:11;3.13;;;2.27;;
6485;SDS011;3276;48.490;9.222;2024-03-23T14:57:37;6.20;;;1.60;;
6485;SDS011;3276;48.490;9.222;2024-03-23T15:00:08;8.93;;;1.57;;
6485;SDS011;3276;48.490;9.222;2024-03-23T15:02:38;4.13;;;1.67;;
6485;SDS011;3276;48.490;9.222;2024-03-23T15:05:04;17.00;;;10.03;;
6485;SDS011;3276;48.490;9.222;2024-03-23T15:07:31;10.03;;;4.70;;
6485;SDS011;3276;48.490;9.222;2024-03-23T15:09:56;2.20;;;1.10;;
6485;SDS011;3276;48.490;9.222;2024-03-23T15:12:22;3.03;;;0.87;;
6485;SDS011;3276;48.490;9.222;2024-03-23T15:14:48;4.00;;;1.20;;
6485;SDS011;3276;48.490;9.222;2024-03-23T15:17:13;7.50;;;4.43;;
6485;SDS011;3276;48.490;9.222;2024-03-23T15:19:39;3.53;;;1.93;;
6485;SDS011;3276;48.490;9.222;2024-03-23T15:22:06;28.03;;;21.33;;
6485;SDS011;3276;48.490;9.222;2024-03-23T15:24:32;21.20;;;13.40;;
6485;SDS011;3276;48.490;9.222;2024-03-23T15:26:59;12.83;;;9.40;;
6485;SDS011;3276;48.490;9.222;2024-03-23T15:29:24;13.10;;;11.10;;
6485;SDS011;3276;48.490;9.222;2024-03-23T15:31:50;13.80;;;6.77;;
6485;SDS011;3276;48.490;9.222;2024-03-23T15:34:17;9.10;;;7.13;;
6485;SDS011;3276;48.490;9.222;2024-03-23T15:36:49;10.30;;;6.17;;
6485;SDS011;3276;48.490;9.222;2024-03-23T15:39:18;8.47;;;5.20;;
6485;SDS011;3276;48.490;9.222;2024-03-23T15:41:44;4.77;;;2.10;;
6485;SDS011;3276;48.490;9.222;2024-03-23T15:44:13;6.17;;;3.63;;
6485;SDS011;3276;48.490;9.222;2024-03-23T15:46:39;7.00;;;1.93;;
6485;SDS011;3276;48.490;9.222;2024-03-23T15:49:04;2.60;;;1.20;;
6485;SDS011;3276;48.490;9.222;2024-03-23T15:51:30;4.43;;;1.90;;
6485;SDS011;3276;48.490;9.222;2024-03-23T15:53:59;2.93;;;1.30;;
6485;SDS011;3276;48.490;9.222;2024-03-23T15:56:25;2.87;;;1.60;;
6485;SDS011;3276;48.490;9.222;2024-03-23T15:58:50;4.37;;;1.60;;
6485;SDS011;3276;48.490;9.222;2024-03-23T16:01:16;2.83;;;1.27;;
6485;SDS011;3276;48.490;9.222;2024-03-23T16:03:41;3.03;;;1.70;;
6485;SDS011;3276;48.490;9.222;2024-03-23T16:06:07;4.50;;;1.60;;
6485;SDS011;3276;48.490;9.222;2024-03-23T16:08:33;2.53;;;1.30;;
6485;SDS011;3276;48.490;9.222;2024-03-23T16:11:03;4.93;;;2.37;;
6485;SDS011;3276;48.490;9.222;2024-03-23T16:13:29;3.10;;;1.20;;
6485;SDS011;3276;48.490;9.222;2024-03-23T16:15:56;3.00;;;1.97;;
6485;SDS011;3276;48.490;9.222;2024-03-23T16:18:25;2.97;;;1.43;;
6485;SDS011;3276;48.490;9.222;2024-03-23T16:21:09;4.13;;;1.23;;
6485;SDS011;3276;48.490;9.222;2024-03-23T16:23:35;2.20;;;0.93;;
6485;SDS011;3276;48.490;9.222;2024-03-23T16:26:06;2.60;;;1.17;;